Time;durP1;ratioP1;P1;durP2;ratioP2;P2;SDS_P1;SDS_P2;PMS_P1;PMS_P2;Temp;Humidity;BMP_temperature;BMP_pressure;BME280_temperature;BME280_humidity;BME280_pressure;Samples;Min_cycle;Max_cycle;Signal;HPM_P1;HPM_P2
2023/04/11 00:00:24;;;;;;;9.20;2.57;;;11.10;99.90;;;;;;4965992;28;20447;-78
2023/04/11 00:02:50;;;;;;;10.77;2.60;;;11.10;99.90;;;;;;4972802;28;20693;-80
2023/04/11 00:05:16;;;;;;;8.10;2.40;;;11.10;99.90;;;;;;4972362;28;20183;-79
2023/04/11 00:07:42;;;;;;;8.73;2.17;;;11.10;99.90;;;;;;4967136;28;20939;-78
2023/04/11 00:10:08;;;;;;;7.23;2.00;;;11.20;99.90;;;;;;4960704;28;20224;-78
2023/04/11 00:12:33;;;;;;;10.83;2.73;;;11.20;99.90;;;;;;4963720;28;20630;-79
2023/04/11 00:14:59;;;;;;;10.53;2.97;;;11.20;1.00;;;;;;4969940;28;20456;-79
2023/04/11 00:17:27;;;;;;;10.83;3.00;;;11.20;1.00;;;;;;4964920;28;20258;-79
2023/04/11 00:19:54;;;;;;;8.50;2.77;;;11.20;1.00;;;;;;4949714;28;20211;-79
2023/04/11 00:22:23;;;;;;;18.20;3.30;;;11.20;1.00;;;;;;4959799;28;20444;-79
2023/04/11 00:24:49;;;;;;;8.90;2.97;;;11.20;1.00;;;;;;4976247;28;20456;-79
2023/04/11 00:27:14;;;;;;;11.50;2.27;;;11.20;99.90;;;;;;4974816;28;20618;-79
2023/04/11 00:29:40;;;;;;;9.87;2.40;;;11.20;99.90;;;;;;4954942;28;20322;-80
2023/04/11 00:32:05;;;;;;;9.53;2.20;;;11.20;99.90;;;;;;4974618;28;20192;-79
2023/04/11 00:34:32;;;;;;;9.20;2.37;;;11.10;99.90;;;;;;4979269;28;20647;-81
2023/04/11 00:36:58;;;;;;;9.73;2.80;;;11.10;29.20;;;;;;4962984;28;20271;-78
2023/04/11 00:39:25;;;;;;;13.17;2.77;;;11.10;1.00;;;;;;4974046;28;20459;-80
2023/04/11 00:41:51;;;;;;;10.30;2.37;;;11.10;1.00;;;;;;4969754;28;20263;-79
2023/04/11 00:44:16;;;;;;;11.10;3.60;;;11.10;1.00;;;;;;4971191;28;20471;-80
2023/04/11 00:46:44;;;;;;;11.60;3.03;;;11.00;1.00;;;;;;4980016;28;20464;-80
2023/04/11 00:49:10;;;;;;;14.03;3.20;;;11.00;1.00;;;;;;4978358;28;20296;-78
2023/04/11 00:51:36;;;;;;;13.23;2.97;;;11.00;1.00;;;;;;4972448;28;20524;-80
2023/04/11 00:54:02;;;;;;;9.83;2.53;;;11.00;99.90;;;;;;4972857;28;20527;-80
2023/04/11 00:56:28;;;;;;;16.30;3.30;;;11.00;99.90;;;;;;4973045;28;20858;-79
2023/04/11 00:58:54;;;;;;;12.30;2.27;;;11.00;1.00;;;;;;4960754;28;20535;-79
2023/04/11 01:01:22;;;;;;;14.93;2.97;;;11.00;1.00;;;;;;4977399;28;20215;-79
2023/04/11 01:03:48;;;;;;;6.30;2.37;;;11.00;1.00;;;;;;4977020;28;20435;-79
2023/04/11 01:06:17;;;;;;;9.83;2.57;;;11.00;1.00;;;;;;4975611;28;20471;-79
2023/04/11 01:08:43;;;;;;;7.10;2.60;;;11.00;1.00;;;;;;4980857;28;20447;-80
2023/04/11 01:11:11;;;;;;;11.33;2.40;;;11.00;99.90;;;;;;4983101;28;20571;-80
2023/04/11 01:13:39;;;;;;;11.00;2.90;;;11.00;99.90;;;;;;4980795;28;20443;-79
2023/04/11 01:16:05;;;;;;;7.83;2.40;;;11.00;99.90;;;;;;4969531;28;20451;-78
2023/04/11 01:18:31;;;;;;;20.37;2.97;;;11.00;99.90;;;;;;4988033;28;20526;-79
2023/04/11 01:20:59;;;;;;;22.10;3.60;;;11.00;99.90;;;;;;4979305;28;20815;-79
2023/04/11 01:23:24;;;;;;;12.93;2.83;;;11.00;1.00;;;;;;4959485;28;20287;-79
2023/04/11 01:25:50;;;;;;;15.70;2.50;;;11.00;1.00;;;;;;4969667;28;20519;-80
2023/04/11 01:28:19;;;;;;;17.63;4.83;;;11.00;1.00;;;;;;4973403;28;20471;-79
2023/04/11 01:30:45;;;;;;;10.90;2.60;;;11.00;1.00;;;;;;4973688;28;20500;-79
2023/04/11 01:33:11;;;;;;;12.40;3.17;;;11.00;1.00;;;;;;4976904;28;20431;-80
2023/04/11 01:35:37;;;;;;;19.77;3.63;;;11.00;1.00;;;;;;4976452;28;20200;-79
2023/04/11 01:38:03;;;;;;;18.43;4.40;;;11.00;99.90;;;;;;4955942;28;20431;-79
2023/04/11 01:40:31;;;;;;;15.47;3.27;;;11.00;99.90;;;;;;4974487;28;20505;-79
2023/04/11 01:42:58;;;;;;;18.57;3.60;;;10.90;99.90;;;;;;4984397;28;20431;-80
2023/04/11 01:45:25;;;;;;;15.43;3.40;;;11.00;99.90;;;;;;4961274;28;20511;-80
2023/04/11 01:47:51;;;;;;;21.67;3.60;;;10.90;99.90;;;;;;4977347;28;20530;-79
2023/04/11 01:50:16;;;;;;;20.50;4.07;;;10.90;1.00;;;;;;4971583;28;20442;-80
2023/04/11 01:52:42;;;;;;;16.40;3.70;;;10.80;1.00;;;;;;4981396;28;20963;-80
2023/04/11 01:55:08;;;;;;;15.37;4.00;;;10.80;1.00;;;;;;4981754;28;20176;-80
2023/04/11 01:57:33;;;;;;;16.90;3.13;;;10.80;1.00;;;;;;4959360;28;20189;-78
2023/04/11 02:00:00;;;;;;;8.77;3.17;;;10.80;1.00;;;;;;4977185;28;20204;-80
2023/04/11 02:02:25;;;;;;;15.90;3.30;;;10.70;1.00;;;;;;4950894;28;20208;-79
2023/04/11 02:04:51;;;;;;;13.40;3.50;;;10.70;1.00;;;;;;4966435;28;20767;-79
2023/04/11 02:07:16;;;;;;;11.63;3.10;;;10.70;1.00;;;;;;4983396;28;20246;-80
2023/04/11 02:09:41;;;;;;;25.57;4.53;;;10.70;1.00;;;;;;4976234;28;20209;-79
2023/04/11 02:12:07;;;;;;;23.63;4.60;;;10.70;1.00;;;;;;4969192;28;20185;-79
2023/04/11 02:14:41;;;;;;;24.13;3.80;;;10.60;1.00;;;;;;4978030;28;20193;-79
2023/04/11 02:17:08;;;;;;;16.83;3.80;;;10.60;1.00;;;;;;4972596;28;20562;-78
2023/04/11 02:19:35;;;;;;;26.80;4.50;;;10.50;99.90;;;;;;4955691;28;20466;-79
2023/04/11 02:22:01;;;;;;;18.23;3.83;;;10.50;99.90;;;;;;4964086;28;20440;-79
2023/04/11 02:24:29;;;;;;;25.13;4.90;;;10.40;99.90;;;;;;4959424;28;20558;-77
2023/04/11 02:26:55;;;;;;;21.07;3.90;;;10.30;99.90;;;;;;4976913;28;20502;-79
2023/04/11 02:29:20;;;;;;;17.67;3.90;;;10.30;1.00;;;;;;4969792;28;20879;-77
2023/04/11 02:31:49;;;;;;;15.93;3.63;;;10.20;1.00;;;;;;4971740;28;20439;-79
2023/04/11 02:34:15;;;;;;;14.93;3.30;;;10.20;1.00;;;;;;4968758;28;20743;-79
2023/04/11 02:36:41;;;;;;;10.53;3.17;;;10.20;99.90;;;;;;4968443;28;20440;-79
2023/04/11 02:39:06;;;;;;;17.77;3.70;;;10.20;99.90;;;;;;4973820;28;20228;-78
2023/04/11 02:41:32;;;;;;;15.03;3.73;;;10.20;99.90;;;;;;4967593;28;20443;-78
2023/04/11 02:43:58;;;;;;;16.40;3.83;;;10.20;99.90;;;;;;4973465;28;20651;-78
2023/04/11 02:46:23;;;;;;;14.07;3.80;;;10.10;99.90;;;;;;4960905;28;20220;-79
2023/04/11 02:48:49;;;;;;;15.63;4.00;;;10.10;46.00;;;;;;4966871;28;20208;-79
2023/04/11 02:51:14;;;;;;;22.07;4.20;;;10.10;22.20;;;;;;4954047;28;20610;-79
2023/04/11 02:53:40;;;;;;;23.83;4.00;;;10.00;1.00;;;;;;4967656;28;20177;-79
2023/04/11 02:56:09;;;;;;;18.50;4.50;;;10.00;1.00;;;;;;4945764;28;20278;-79
2023/04/11 02:58:37;;;;;;;18.97;3.90;;;10.00;99.90;;;;;;4966136;28;20208;-79
2023/04/11 03:01:04;;;;;;;25.93;4.23;;;10.00;99.90;;;;;;4975207;28;20436;-79
2023/04/11 03:03:30;;;;;;;14.50;3.40;;;10.00;99.90;;;;;;4967293;28;20526;-79
2023/04/11 03:05:55;;;;;;;14.33;5.13;;;10.00;99.90;;;;;;4964662;28;21075;-79
2023/04/11 03:08:21;;;;;;;22.87;5.37;;;10.00;32.40;;;;;;4960569;28;20205;-79
2023/04/11 03:10:47;;;;;;;13.80;3.53;;;10.00;99.90;;;;;;4968427;28;20180;-79
2023/04/11 03:13:12;;;;;;;19.80;4.20;;;10.00;34.00;;;;;;4971749;28;20458;-79
2023/04/11 03:15:38;;;;;;;18.37;4.90;;;10.00;1.00;;;;;;4966984;28;20262;-79
2023/04/11 03:18:03;;;;;;;14.33;3.70;;;10.00;1.00;;;;;;4967145;28;20479;-79
2023/04/11 03:20:29;;;;;;;16.93;3.90;;;10.00;1.00;;;;;;4967832;28;20180;-79
2023/04/11 03:22:54;;;;;;;19.83;4.93;;;10.00;1.00;;;;;;4969043;28;20180;-79
2023/04/11 03:25:20;;;;;;;17.33;3.70;;;10.00;1.00;;;;;;4970615;28;20188;-78
2023/04/11 03:27:45;;;;;;;23.50;5.50;;;10.00;1.00;;;;;;4974575;28;20598;-79
2023/04/11 03:30:12;;;;;;;18.90;3.20;;;10.00;99.90;;;;;;4969923;28;20208;-78
2023/04/11 03:32:38;;;;;;;24.43;3.63;;;10.00;99.90;;;;;;4967962;28;20608;-79
2023/04/11 03:35:04;;;;;;;22.10;4.93;;;10.10;99.90;;;;;;4973258;28;20494;-79
2023/04/11 03:37:29;;;;;;;19.30;5.00;;;10.10;1.00;;;;;;4967616;28;20678;-78
2023/04/11 03:39:55;;;;;;;17.53;4.97;;;10.00;1.00;;;;;;4959082;28;20448;-79
2023/04/11 03:42:21;;;;;;;15.80;4.50;;;10.10;1.00;;;;;;4965350;28;20731;-78
2023/04/11 03:44:46;;;;;;;20.77;5.03;;;10.10;1.00;;;;;;4948659;28;20193;-79
2023/04/11 03:47:12;;;;;;;13.27;3.00;;;10.10;1.00;;;;;;4953223;28;20572;-79
2023/04/11 03:49:38;;;;;;;18.90;4.27;;;10.10;1.00;;;;;;4966256;28;20212;-80
2023/04/11 03:52:05;;;;;;;16.40;4.90;;;10.10;1.00;;;;;;4967601;28;20726;-79
2023/04/11 03:54:30;;;;;;;20.63;3.80;;;10.10;1.00;;;;;;4965233;28;20624;-79
2023/04/11 03:56:56;;;;;;;18.70;4.80;;;10.00;1.00;;;;;;4972461;28;20563;-79
2023/04/11 03:59:22;;;;;;;18.00;4.13;;;10.00;99.90;;;;;;4951431;28;20201;-78
2023/04/11 04:01:47;;;;;;;17.73;4.30;;;10.00;99.90;;;;;;4956097;28;20462;-79
2023/04/11 04:04:13;;;;;;;15.93;4.00;;;10.00;99.90;;;;;;4975643;28;20192;-79
2023/04/11 04:06:39;;;;;;;24.77;4.87;;;10.00;99.90;;;;;;4963980;28;20192;-79
2023/04/11 04:09:04;;;;;;;21.90;3.70;;;10.00;99.90;;;;;;4976276;28;20586;-79
2023/04/11 04:11:30;;;;;;;22.43;4.73;;;10.00;99.90;;;;;;4977154;28;20184;-79
2023/04/11 04:13:55;;;;;;;14.00;3.30;;;10.00;99.90;;;;;;4952760;28;20747;-80
2023/04/11 04:16:21;;;;;;;12.23;3.57;;;10.00;99.90;;;;;;4966638;28;20188;-79
2023/04/11 04:18:46;;;;;;;24.17;3.77;;;10.00;99.90;;;;;;4957244;28;20588;-80
2023/04/11 04:21:12;;;;;;;18.27;4.67;;;10.00;99.90;;;;;;4977315;28;20192;-80
2023/04/11 04:23:38;;;;;;;16.20;4.47;;;10.00;99.90;;;;;;4972283;28;20183;-80
2023/04/11 04:26:04;;;;;;;34.10;4.77;;;10.00;99.90;;;;;;4970333;28;20306;-79
2023/04/11 04:28:30;;;;;;;16.93;3.67;;;9.90;1.00;;;;;;4979259;28;20470;-79
2023/04/11 04:30:56;;;;;;;19.90;4.63;;;9.90;1.00;;;;;;4978694;28;20429;-79
2023/04/11 04:33:23;;;;;;;17.67;3.17;;;9.90;1.00;;;;;;4975655;28;20625;-79
2023/04/11 04:35:56;;;;;;;15.30;4.10;;;9.90;1.00;;;;;;4975502;28;20436;-80
2023/04/11 04:38:24;;;;;;;19.80;4.77;;;9.90;1.00;;;;;;4966941;28;20499;-80
2023/04/11 04:40:53;;;;;;;19.60;4.47;;;9.90;1.00;;;;;;4965248;28;20483;-80
2023/04/11 04:43:21;;;;;;;15.00;3.60;;;9.90;99.90;;;;;;4961844;28;22624;-79
2023/04/11 04:45:49;;;;;;;19.87;4.33;;;9.90;1.00;;;;;;4975141;28;20482;-79
2023/04/11 04:48:16;;;;;;;17.80;4.83;;;9.90;99.90;;;;;;4946237;28;20480;-79
2023/04/11 04:50:42;;;;;;;15.65;4.47;;;9.90;99.90;;;;;;4976015;28;20428;-79
2023/04/11 04:53:08;;;;;;;17.50;5.33;;;9.90;99.90;;;;;;4981408;28;20234;-81
2023/04/11 04:55:34;;;;;;;18.83;4.20;;;9.90;99.90;;;;;;4980621;28;20845;-80
2023/04/11 04:58:00;;;;;;;20.87;3.97;;;9.90;1.00;;;;;;4981041;28;20180;-79
2023/04/11 05:00:25;;;;;;;25.17;4.00;;;9.90;1.00;;;;;;4971888;28;20522;-78
2023/04/11 05:02:55;;;;;;;26.23;4.10;;;9.80;1.00;;;;;;4976190;28;20176;-79
2023/04/11 05:05:21;;;;;;;14.17;3.60;;;9.80;1.00;;;;;;4977315;28;20189;-79
2023/04/11 05:07:47;;;;;;;15.17;3.50;;;9.80;1.00;;;;;;4976807;28;20464;-79
2023/04/11 05:10:12;;;;;;;10.77;3.47;;;9.90;1.00;;;;;;4965565;28;20231;-79
2023/04/11 05:12:54;;;;;;;18.37;3.93;;;9.80;1.00;;;;;;4976551;28;20192;-79
2023/04/11 05:15:21;;;;;;;21.30;3.97;;;9.80;1.00;;;;;;4981975;28;20180;-79
2023/04/11 05:17:47;;;;;;;20.73;4.67;;;9.80;1.00;;;;;;4973288;28;20448;-80
2023/04/11 05:20:14;;;;;;;27.03;4.30;;;9.90;1.00;;;;;;4960658;28;20459;-80
2023/04/11 05:22:41;;;;;;;16.47;3.60;;;9.80;99.90;;;;;;4965022;28;20184;-79
2023/04/11 05:25:07;;;;;;;18.33;4.30;;;9.90;99.90;;;;;;4979767;28;20527;-80
2023/04/11 05:27:33;;;;;;;9.70;3.60;;;9.90;99.90;;;;;;4978121;28;20479;-80
2023/04/11 05:29:59;;;;;;;15.50;3.90;;;10.00;99.90;;;;;;4973681;28;20975;-79
2023/04/11 05:32:25;;;;;;;16.23;4.73;;;10.00;97.70;;;;;;4975150;28;20230;-80
2023/04/11 05:34:57;;;;;;;14.80;4.40;;;10.00;5.40;;;;;;4978293;28;20862;-79
2023/04/11 05:37:24;;;;;;;15.03;4.13;;;10.00;1.00;;;;;;4978237;28;20188;-79
2023/04/11 05:39:52;;;;;;;15.10;4.30;;;10.00;1.00;;;;;;4985884;28;20485;-79
2023/04/11 05:42:18;;;;;;;15.70;3.90;;;10.00;1.00;;;;;;4983388;28;20434;-79
2023/04/11 05:44:43;;;;;;;25.30;5.60;;;10.00;1.00;;;;;;4996384;28;20471;-80
2023/04/11 05:47:12;;;;;;;16.70;4.27;;;10.00;1.00;;;;;;4987082;28;20204;-79
2023/04/11 05:49:37;;;;;;;15.00;3.37;;;10.00;1.00;;;;;;4967896;28;20201;-79
2023/04/11 05:52:05;;;;;;;20.87;4.63;;;10.10;1.00;;;;;;4962195;28;20825;-78
2023/04/11 05:54:33;;;;;;;16.27;3.70;;;10.30;99.90;;;;;;4986657;28;20585;-79
2023/04/11 05:57:00;;;;;;;12.60;4.27;;;10.50;46.40;;;;;;4985386;28;20438;-78
2023/04/11 05:59:27;;;;;;;14.43;3.93;;;11.00;1.00;;;;;;4980904;28;20549;-79
2023/04/11 06:01:53;;;;;;;17.87;3.50;;;11.10;99.90;;;;;;4972417;28;20448;-79
2023/04/11 06:04:18;;;;;;;18.10;3.93;;;11.40;99.90;;;;;;4962612;28;20455;-78
2023/04/11 06:06:44;;;;;;;12.87;4.00;;;12.40;1.00;;;;;;4975146;28;20530;-79
2023/04/11 06:09:10;;;;;;;19.30;3.60;;;13.30;1.00;;;;;;4976291;28;20236;-79
2023/04/11 06:11:35;;;;;;;14.37;3.30;;;14.70;1.00;;;;;;4976676;28;20255;-79
2023/04/11 06:14:01;;;;;;;22.30;3.83;;;14.90;99.90;;;;;;4970636;28;20188;-78
2023/04/11 06:16:26;;;;;;;13.80;4.37;;;14.00;99.90;;;;;;4975548;28;20223;-79
2023/04/11 06:18:52;;;;;;;14.10;3.60;;;13.40;99.90;;;;;;4977524;28;20220;-79
2023/04/11 06:21:18;;;;;;;17.50;4.30;;;13.00;99.90;;;;;;4978062;28;20185;-79
2023/04/11 06:23:43;;;;;;;11.60;4.00;;;12.70;99.90;;;;;;4960110;28;20683;-79
2023/04/11 06:26:09;;;;;;;26.17;6.17;;;12.60;99.90;;;;;;4961163;28;20270;-79
2023/04/11 06:28:34;;;;;;;16.47;4.73;;;12.80;99.90;;;;;;4977459;28;20695;-79
2023/04/11 06:31:00;;;;;;;19.93;3.60;;;13.60;99.90;;;;;;4981905;28;20193;-80
2023/04/11 06:33:25;;;;;;;11.57;3.53;;;15.90;99.90;;;;;;4964784;28;20571;-79
2023/04/11 06:35:51;;;;;;;13.80;3.73;;;17.40;99.90;;;;;;4978718;28;20695;-80
2023/04/11 06:38:16;;;;;;;13.00;2.73;;;19.70;99.90;;;;;;4963233;28;20219;-79
2023/04/11 06:40:42;;;;;;;12.33;3.60;;;22.70;99.90;;;;;;4964044;28;20339;-80
2023/04/11 06:43:07;;;;;;;11.87;3.07;;;27.40;99.90;;;;;;4981705;28;20187;-81
2023/04/11 06:45:33;;;;;;;10.67;2.90;;;31.00;99.90;;;;;;4962905;28;20200;-81
2023/04/11 06:47:58;;;;;;;13.87;3.17;;;33.40;99.90;;;;;;4977852;28;20191;-80
2023/04/11 06:50:24;;;;;;;11.60;3.67;;;34.10;99.90;;;;;;4979997;28;20196;-81
2023/04/11 06:52:50;;;;;;;12.83;3.63;;;31.00;99.90;;;;;;4987817;28;20189;-80
2023/04/11 06:55:16;;;;;;;12.13;3.27;;;31.90;99.90;;;;;;4965452;28;20255;-80
2023/04/11 06:57:42;;;;;;;9.63;3.30;;;34.30;99.90;;;;;;4978423;28;20215;-81
2023/04/11 07:00:11;;;;;;;10.10;3.73;;;34.60;99.90;;;;;;4978192;28;20460;-81
2023/04/11 07:02:37;;;;;;;9.83;2.93;;;35.30;99.90;;;;;;4973411;28;20478;-81
2023/04/11 07:05:04;;;;;;;10.10;3.03;;;37.40;99.90;;;;;;4969535;28;20559;-81
2023/04/11 07:07:30;;;;;;;8.97;3.10;;;38.00;99.90;;;;;;4972454;28;20510;-81
2023/04/11 07:10:02;;;;;;;15.63;3.20;;;39.60;99.90;;;;;;4978832;28;20579;-81
2023/04/11 07:13:34;;;;;;;9.47;3.20;;;40.80;99.90;;;;;;4960834;28;20491;-81
2023/04/11 07:16:45;;;;;;;12.73;3.47;;;39.50;99.90;;;;;;4949323;28;20471;-81
2023/04/11 07:45:35;;;;;;;9.03;2.80;;;41.20;99.90;;;;;;2241566;23;20526;-81
2023/04/11 07:48:34;;;;;;;7.10;2.70;;;41.50;99.90;;;;;;4984443;28;20491;-81
2023/04/11 07:55:26;;;;;;;6.90;2.93;;;43.60;99.90;;;;;;4974000;28;20474;-81
2023/04/11 08:05:55;;;;;;;;;;;;;;;;;;;;;
2023/04/11 08:08:40;;;;;;;9.63;3.37;;;39.30;96.80;;;;;;4941142;29;20552;-80
2023/04/11 08:11:06;;;;;;;9.93;2.37;;;36.50;90.20;;;;;;4934659;28;20451;-80
2023/04/11 08:13:50;;;;;;;;;;;;;;;;;;;;;
2023/04/11 08:16:16;;;;;;;9.17;2.57;;;36.90;93.10;;;;;;4968381;28;20589;-81
2023/04/11 08:18:44;;;;;;;10.03;3.00;;;38.00;94.50;;;;;;4969381;28;20566;-81
2023/04/11 08:21:17;;;;;;;7.87;2.90;;;39.30;95.60;;;;;;4973367;28;20239;-81
2023/04/11 08:24:20;;;;;;;7.70;2.77;;;37.30;91.00;;;;;;4968342;28;21225;-80
2023/04/11 08:26:49;;;;;;;6.10;2.07;;;33.70;76.90;;;;;;4972777;28;20455;-80
2023/04/11 08:30:07;;;;;;;7.77;2.13;;;32.50;76.10;;;;;;4979263;28;20455;-81
2023/04/11 08:33:22;;;;;;;6.40;2.47;;;31.50;75.00;;;;;;4982499;28;20447;-82
2023/04/11 08:36:11;;;;;;;7.33;2.57;;;33.40;85.70;;;;;;4983386;28;20455;-81
2023/04/11 08:38:49;;;;;;;6.07;2.53;;;31.90;77.80;;;;;;4981602;28;20463;-81
2023/04/11 08:41:17;;;;;;;4.47;1.70;;;34.50;90.30;;;;;;4980061;28;20439;-81
2023/04/11 08:43:44;;;;;;;7.70;2.83;;;34.40;86.30;;;;;;4982629;28;20443;-80
2023/04/11 08:46:13;;;;;;;6.50;2.17;;;35.30;91.10;;;;;;4972511;28;20440;-80
2023/04/11 08:48:38;;;;;;;4.57;1.80;;;37.10;92.70;;;;;;4968946;28;20488;-81
2023/04/11 08:51:07;;;;;;;5.43;1.83;;;37.80;93.10;;;;;;4969867;28;20443;-82
2023/04/11 08:53:37;;;;;;;11.80;2.50;;;38.40;92.70;;;;;;4970984;28;20195;-81
2023/04/11 08:56:03;;;;;;;7.63;2.27;;;38.90;93.00;;;;;;4970004;28;20467;-80
2023/04/11 08:58:37;;;;;;;6.07;2.47;;;35.70;82.60;;;;;;4970824;28;20471;-81
2023/04/11 09:01:30;;;;;;;7.23;2.10;;;33.10;72.20;;;;;;4969148;28;20238;-81
2023/04/11 09:03:57;;;;;;;9.17;2.03;;;34.20;81.10;;;;;;4972015;28;20962;-80
2023/04/11 09:06:57;;;;;;;7.33;2.50;;;34.90;84.00;;;;;;4971926;28;20530;-81
2023/04/11 09:09:33;;;;;;;5.63;1.93;;;36.10;88.10;;;;;;4970171;28;20451;-80
2023/04/11 09:11:59;;;;;;;7.53;2.40;;;35.60;83.60;;;;;;4965621;28;20434;-81
2023/04/11 09:14:25;;;;;;;7.37;2.43;;;34.90;79.90;;;;;;4972636;28;20447;-81
2023/04/11 09:17:00;;;;;;;6.57;2.20;;;35.90;85.20;;;;;;4972747;28;20212;-81
2023/04/11 09:19:31;;;;;;;4.60;2.00;;;34.20;75.60;;;;;;4973700;28;20490;-81
2023/04/11 09:21:59;;;;;;;5.33;2.60;;;35.00;80.80;;;;;;4973582;28;20443;-81
2023/04/11 09:24:26;;;;;;;7.20;2.50;;;36.10;86.20;;;;;;4972854;28;20440;-85
2023/04/11 09:27:15;;;;;;;10.30;2.70;;;34.90;79.10;;;;;;4967336;28;20506;-81
2023/04/11 09:29:45;;;;;;;6.33;2.17;;;34.10;76.30;;;;;;4971314;28;20882;-80
2023/04/11 09:32:32;;;;;;;6.83;2.23;;;31.40;65.00;;;;;;4971505;28;20502;-80
2023/04/11 09:35:11;;;;;;;9.20;2.60;;;29.50;58.20;;;;;;4971453;28;20443;-80
2023/04/11 09:37:55;;;;;;;10.10;2.67;;;29.40;59.70;;;;;;4972771;28;20475;-80
2023/04/11 09:40:25;;;;;;;9.60;2.23;;;31.20;71.70;;;;;;4961666;28;20448;-81
2023/04/11 09:43:02;;;;;;;6.37;2.50;;;31.90;90.70;;;;;;4968206;28;20447;-80
2023/04/11 09:45:29;;;;;;;6.80;2.20;;;29.20;59.90;;;;;;4973598;28;20466;-80
2023/04/11 09:47:57;;;;;;;8.60;2.17;;;28.90;59.50;;;;;;4970704;28;20981;-79
2023/04/11 09:50:25;;;;;;;6.60;2.53;;;29.60;64.80;;;;;;4972860;28;20447;-80
2023/04/11 09:52:51;;;;;;;9.23;2.30;;;28.70;61.70;;;;;;4973519;28;20447;-80
2023/04/11 09:55:21;;;;;;;6.63;2.50;;;30.30;70.80;;;;;;4971169;28;21094;-80
2023/04/11 09:57:52;;;;;;;8.37;2.60;;;31.70;76.20;;;;;;4971932;28;21025;-81
2023/04/11 10:00:23;;;;;;;3.20;1.60;;;31.00;72.40;;;;;;4971404;28;20455;-80
2023/04/11 10:02:51;;;;;;;6.47;2.50;;;29.00;61.00;;;;;;4977201;28;20438;-80
2023/04/11 10:05:18;;;;;;;9.63;2.70;;;28.90;60.10;;;;;;4976551;28;20435;-80
2023/04/11 10:07:45;;;;;;;8.70;2.40;;;29.70;65.90;;;;;;4974773;28;20657;-80
2023/04/11 10:10:22;;;;;;;7.20;1.80;;;28.50;60.30;;;;;;4975457;28;20462;-80
2023/04/11 10:12:49;;;;;;;4.37;2.03;;;29.60;64.40;;;;;;4978457;28;20494;-80
2023/04/11 10:15:16;;;;;;;8.60;2.20;;;30.90;72.00;;;;;;4976510;28;20439;-82
2023/04/11 10:18:02;;;;;;;7.00;2.00;;;31.40;73.60;;;;;;4975797;28;20622;-80
2023/04/11 10:20:43;;;;;;;8.33;2.00;;;31.30;73.60;;;;;;4980658;28;20487;-80
2023/04/11 10:23:10;;;;;;;4.57;1.77;;;30.40;68.30;;;;;;4980037;28;20431;-81
2023/04/11 10:25:50;;;;;;;7.00;2.00;;;31.10;71.90;;;;;;4976832;28;20958;-80
2023/04/11 10:28:40;;;;;;;4.10;1.90;;;31.00;69.80;;;;;;4979686;28;20459;-81
2023/04/11 10:31:12;;;;;;;5.80;2.07;;;30.70;69.20;;;;;;4967771;28;20435;-80
2023/04/11 10:33:59;;;;;;;6.70;2.70;;;29.80;64.10;;;;;;4976385;28;20443;-80
2023/04/11 10:36:52;;;;;;;5.43;1.80;;;29.00;60.80;;;;;;4976501;28;20471;-81
2023/04/11 10:39:47;;;;;;;5.93;1.83;;;27.60;55.40;;;;;;4972538;28;20459;-81
2023/04/11 10:42:32;;;;;;;7.80;1.90;;;28.40;60.80;;;;;;4973233;28;20430;-80
2023/04/11 10:45:17;;;;;;;5.93;2.10;;;29.60;65.70;;;;;;4980100;28;20958;-82
2023/04/11 10:47:58;;;;;;;7.93;1.77;;;30.80;73.00;;;;;;4986296;28;20484;-81
2023/04/11 10:50:25;;;;;;;6.47;2.23;;;29.50;64.30;;;;;;4986933;28;20532;-81
2023/04/11 10:52:56;;;;;;;6.23;2.10;;;28.30;58.80;;;;;;4985487;28;20454;-81
2023/04/11 10:55:22;;;;;;;9.13;2.10;;;28.60;60.70;;;;;;4986560;28;20184;-81
2023/04/11 10:58:09;;;;;;;5.07;1.63;;;29.00;62.70;;;;;;4984399;28;20554;-81
2023/04/11 11:00:50;;;;;;;7.77;2.07;;;28.30;59.70;;;;;;4977288;28;20436;-79
2023/04/11 11:03:25;;;;;;;4.93;2.40;;;27.50;56.70;;;;;;4973756;28;20552;-80
2023/04/11 11:06:02;;;;;;;7.13;2.23;;;26.90;54.90;;;;;;4976204;28;20437;-80
2023/04/11 11:08:45;;;;;;;3.77;1.77;;;26.80;72.60;;;;;;4972921;28;20450;-80
2023/04/11 11:11:11;;;;;;;8.90;2.20;;;26.80;56.70;;;;;;4975585;28;20438;-81
2023/04/11 11:13:46;;;;;;;5.60;1.80;;;26.90;57.40;;;;;;4973142;28;20518;-80
2023/04/11 11:16:15;;;;;;;5.60;1.73;;;26.80;58.20;;;;;;4976019;28;20485;-80
2023/04/11 11:18:44;;;;;;;4.70;1.40;;;26.10;54.50;;;;;;4973851;28;20473;-80
2023/04/11 11:21:10;;;;;;;4.70;1.80;;;24.90;50.70;;;;;;4978322;28;20466;-81
2023/04/11 11:23:36;;;;;;;7.73;1.93;;;24.50;49.60;;;;;;4974465;28;20494;-80
2023/04/11 11:26:02;;;;;;;5.47;1.70;;;25.10;53.10;;;;;;4976288;28;20271;-80
2023/04/11 11:28:27;;;;;;;6.27;1.80;;;24.30;50.60;;;;;;4972740;28;20588;-80
2023/04/11 11:30:55;;;;;;;7.80;2.23;;;23.50;47.90;;;;;;4977609;28;20201;-80
2023/04/11 11:33:25;;;;;;;6.53;2.43;;;23.10;46.90;;;;;;4972370;28;20192;-80
2023/04/11 11:36:03;;;;;;;5.23;1.67;;;22.40;45.50;;;;;;4968445;28;20471;-80
2023/04/11 11:38:29;;;;;;;5.33;1.70;;;22.60;46.80;;;;;;4976402;28;20468;-80
2023/04/11 11:40:57;;;;;;;7.00;2.03;;;23.20;50.60;;;;;;4976940;28;20823;-81
2023/04/11 11:43:26;;;;;;;6.10;1.73;;;24.90;57.50;;;;;;4976477;28;20441;-80
2023/04/11 11:46:14;;;;;;;5.23;1.80;;;25.30;59.20;;;;;;4978800;28;20511;-80
2023/04/11 11:48:57;;;;;;;5.10;1.70;;;24.30;56.20;;;;;;4974029;28;20521;-80
2023/04/11 11:51:23;;;;;;;5.30;1.80;;;24.80;57.90;;;;;;4973963;28;20431;-80
2023/04/11 11:54:09;;;;;;;4.50;1.70;;;25.50;61.20;;;;;;4965480;28;20454;-80
2023/04/11 11:56:36;;;;;;;6.33;1.80;;;26.60;66.90;;;;;;4977055;28;20479;-80
2023/04/11 11:59:03;;;;;;;6.30;2.13;;;26.50;64.30;;;;;;4975672;28;20480;-81
2023/04/11 12:01:33;;;;;;;4.57;1.40;;;26.50;65.00;;;;;;4984727;28;20992;-81
2023/04/11 12:03:59;;;;;;;5.50;1.53;;;27.20;68.50;;;;;;4976219;28;20443;-81
2023/04/11 12:06:32;;;;;;;4.57;1.40;;;27.60;69.80;;;;;;4982107;28;20555;-82
2023/04/11 12:09:11;;;;;;;11.27;2.10;;;28.00;72.00;;;;;;4983150;28;20468;-81
2023/04/11 12:11:41;;;;;;;4.73;1.53;;;27.70;67.60;;;;;;4977903;28;22691;-81
2023/04/11 12:14:15;;;;;;;5.83;1.83;;;26.60;60.70;;;;;;4979158;28;20490;-81
2023/04/11 12:16:41;;;;;;;5.20;1.37;;;26.80;63.20;;;;;;4985214;28;20475;-81
2023/04/11 12:19:07;;;;;;;4.97;1.33;;;27.30;68.10;;;;;;4982573;28;20498;-81
2023/04/11 12:21:33;;;;;;;4.30;1.30;;;27.30;66.10;;;;;;4987707;28;20184;-81
2023/04/11 12:23:59;;;;;;;4.67;1.57;;;27.50;66.00;;;;;;4973758;28;20436;-81
2023/04/11 12:26:30;;;;;;;2.57;1.23;;;27.80;67.80;;;;;;4985049;28;20191;-81
2023/04/11 12:29:01;;;;;;;2.50;1.10;;;28.00;67.80;;;;;;4984923;28;20226;-81
2023/04/11 12:31:26;;;;;;;9.60;1.43;;;28.20;68.70;;;;;;4985224;28;20479;-81
2023/04/11 12:33:52;;;;;;;4.60;1.60;;;28.20;67.10;;;;;;4979321;28;20443;-81
2023/04/11 12:36:20;;;;;;;4.50;1.50;;;28.10;65.80;;;;;;4971236;28;20713;-81
2023/04/11 12:38:51;;;;;;;4.23;1.47;;;28.00;63.20;;;;;;4967526;28;20690;-81
2023/04/11 12:41:19;;;;;;;3.30;1.30;;;27.70;62.00;;;;;;4975300;28;20423;-81
2023/04/11 12:43:45;;;;;;;5.67;1.57;;;27.50;60.10;;;;;;4970386;28;20524;-81
2023/04/11 12:46:13;;;;;;;3.13;1.40;;;27.40;60.30;;;;;;4975405;28;20475;-81
2023/04/11 12:48:44;;;;;;;5.97;1.63;;;27.40;61.00;;;;;;4969394;28;20207;-81
2023/04/11 12:51:10;;;;;;;4.30;1.57;;;27.40;59.70;;;;;;4974705;28;20502;-81
2023/04/11 12:53:37;;;;;;;7.70;1.50;;;27.20;59.90;;;;;;4977756;28;20474;-81
2023/04/11 12:56:06;;;;;;;5.57;1.50;;;27.20;59.90;;;;;;4980599;28;20211;-81
2023/04/11 12:58:31;;;;;;;4.90;1.70;;;27.20;58.60;;;;;;4976123;28;20534;-81
2023/04/11 13:00:58;;;;;;;4.27;1.43;;;27.00;58.60;;;;;;4974136;28;20459;-81
2023/04/11 13:03:23;;;;;;;8.07;2.10;;;26.80;57.00;;;;;;4970324;28;20215;-81
2023/04/11 13:05:49;;;;;;;3.50;1.40;;;26.60;56.80;;;;;;4969148;28;20471;-81
2023/04/11 13:08:18;;;;;;;6.13;2.57;;;26.30;56.80;;;;;;4975799;28;20216;-81
2023/04/11 13:10:43;;;;;;;5.73;1.80;;;26.00;55.70;;;;;;4970157;28;20181;-82
2023/04/11 13:13:09;;;;;;;7.07;2.00;;;25.70;55.00;;;;;;4971968;28;21218;-80
2023/04/11 13:15:35;;;;;;;5.00;1.70;;;25.50;54.30;;;;;;4968399;28;20625;-80
2023/04/11 13:18:00;;;;;;;9.10;2.77;;;25.40;54.60;;;;;;4969648;28;20218;-80
2023/04/11 13:20:26;;;;;;;5.10;1.30;;;25.20;55.00;;;;;;4970360;28;20188;-80
2023/04/11 13:22:51;;;;;;;6.90;2.03;;;25.00;55.20;;;;;;4967309;28;20212;-79
2023/04/11 13:25:17;;;;;;;7.10;2.00;;;24.90;54.80;;;;;;4969198;28;20188;-80
2023/04/11 13:27:43;;;;;;;5.57;1.60;;;24.90;54.60;;;;;;4966643;28;20192;-80
2023/04/11 13:30:09;;;;;;;5.30;1.47;;;24.70;54.80;;;;;;4970695;28;20295;-82
2023/04/11 13:32:35;;;;;;;5.30;1.97;;;24.70;55.40;;;;;;4975013;28;20211;-79
2023/04/11 13:35:01;;;;;;;4.23;1.63;;;24.70;56.20;;;;;;4982724;28;20431;-81
2023/04/11 13:37:27;;;;;;;7.40;1.80;;;24.40;56.00;;;;;;4984238;28;20514;-81